PRIVATE WETTERSTATION BILLIGHEIM-ALLFELD                       ZURCK
Wetterdaten: Sonntag, 13.03.2016
Datum Zeit Temp. A. Temp. A. min Temp. A. max Feuchte A. Luftdruck Regen Wind Richtung Richtung Sonnenschein ET Solar Taupunkt Windchill Windben Empfang
13.03.2016 00:00 2,7 C 2,7 C 2,8 C 86 % 1027,9 hPa 0,0 l/m 0,0 km/h (0 Bft) NO 45 0 min 0,000 mm 0 W/m 0,6 C 2,7 C 4,8 km/h (1 Bft) 100 %
13.03.2016 00:10 2,6 C 2,6 C 2,7 C 86 % 1027,9 hPa 0,0 l/m 0,0 km/h (0 Bft) NO 45 0 min 0,000 mm 0 W/m 0,5 C 2,6 C 4,8 km/h (1 Bft) 100 %
13.03.2016 00:20 2,6 C 2,6 C 2,6 C 87 % 1028,0 hPa 0,0 l/m 1,6 km/h (1 Bft) NO 45 0 min 0,000 mm 0 W/m 0,7 C 2,6 C 8,0 km/h (2 Bft) 91 %
13.03.2016 00:30 2,7 C 2,6 C 2,7 C 87 % 1028,0 hPa 0,0 l/m 1,6 km/h (1 Bft) NO 45 0 min 0,000 mm 0 W/m 0,8 C 2,7 C 6,4 km/h (2 Bft) 100 %
13.03.2016 00:40 2,7 C 2,6 C 2,7 C 87 % 1027,8 hPa 0,0 l/m 0,0 km/h (0 Bft) NO 45 0 min 0,000 mm 0 W/m 0,8 C 2,7 C 8,0 km/h (2 Bft) 100 %
13.03.2016 00:50 2,7 C 2,7 C 2,7 C 87 % 1027,8 hPa 0,0 l/m 1,6 km/h (1 Bft) NO 45 0 min 0,000 mm 0 W/m 0,8 C 2,7 C 6,4 km/h (2 Bft) 100 %
13.03.2016 01:00 2,7 C 2,7 C 2,7 C 86 % 1027,9 hPa 0,0 l/m 1,6 km/h (1 Bft) NO 45 0 min 0,000 mm 0 W/m 0,6 C 2,7 C 8,0 km/h (2 Bft) 100 %
13.03.2016 01:10 2,7 C 2,7 C 2,7 C 86 % 1027,9 hPa 0,0 l/m 1,6 km/h (1 Bft) NO 45 0 min 0,000 mm 0 W/m 0,6 C 2,7 C 6,4 km/h (2 Bft) 100 %
13.03.2016 01:20 2,7 C 2,7 C 2,7 C 86 % 1027,9 hPa 0,0 l/m 1,6 km/h (1 Bft) NO 45 0 min 0,000 mm 0 W/m 0,6 C 2,7 C 6,4 km/h (2 Bft) 100 %
13.03.2016 01:30 2,6 C 2,6 C 2,7 C 86 % 1027,9 hPa 0,0 l/m 1,6 km/h (1 Bft) NO 45 0 min 0,000 mm 0 W/m 0,5 C 2,6 C 6,4 km/h (2 Bft) 100 %
13.03.2016 01:40 2,6 C 2,6 C 2,6 C 86 % 1028,0 hPa 0,0 l/m 1,6 km/h (1 Bft) NO 45 0 min 0,000 mm 0 W/m 0,5 C 2,6 C 8,0 km/h (2 Bft) 100 %
13.03.2016 01:50 2,6 C 2,6 C 2,6 C 87 % 1028,0 hPa 0,0 l/m 0,0 km/h (0 Bft) NO 45 0 min 0,000 mm 0 W/m 0,7 C 2,6 C 4,8 km/h (1 Bft) 99 %
13.03.2016 02:00 2,6 C 2,6 C 2,6 C 87 % 1028,0 hPa 0,0 l/m 0,0 km/h (0 Bft) NO 45 0 min 0,000 mm 0 W/m 0,7 C 2,6 C 6,4 km/h (2 Bft) 100 %
13.03.2016 02:10 2,6 C 2,6 C 2,6 C 87 % 1028,0 hPa 0,0 l/m 1,6 km/h (1 Bft) NO 45 0 min 0,000 mm 0 W/m 0,7 C 2,6 C 6,4 km/h (2 Bft) 100 %
13.03.2016 02:20 2,5 C 2,5 C 2,6 C 87 % 1028,0 hPa 0,0 l/m 1,6 km/h (1 Bft) NO 45 0 min 0,000 mm 0 W/m 0,6 C 2,5 C 6,4 km/h (2 Bft) 100 %
13.03.2016 02:30 2,6 C 2,5 C 2,6 C 87 % 1028,0 hPa 0,0 l/m 0,0 km/h (0 Bft) NO 45 0 min 0,000 mm 0 W/m 0,7 C 2,6 C 6,4 km/h (2 Bft) 100 %
13.03.2016 02:40 2,6 C 2,6 C 2,6 C 87 % 1028,0 hPa 0,0 l/m 0,0 km/h (0 Bft) N-NO 22 0 min 0,000 mm 0 W/m 0,7 C 2,6 C 4,8 km/h (1 Bft) 100 %
13.03.2016 02:50 2,6 C 2,6 C 2,6 C 87 % 1027,9 hPa 0,0 l/m 0,0 km/h (0 Bft) NO 45 0 min 0,000 mm 0 W/m 0,7 C 2,6 C 6,4 km/h (2 Bft) 100 %
13.03.2016 03:00 2,6 C 2,6 C 2,6 C 87 % 1027,9 hPa 0,0 l/m 1,6 km/h (1 Bft) NO 45 0 min 0,000 mm 0 W/m 0,7 C 2,6 C 6,4 km/h (2 Bft) 100 %
13.03.2016 03:10 2,6 C 2,6 C 2,6 C 86 % 1027,9 hPa 0,0 l/m 1,6 km/h (1 Bft) NO 45 0 min 0,000 mm 0 W/m 0,5 C 2,6 C 9,7 km/h (2 Bft) 100 %
13.03.2016 03:20 2,6 C 2,6 C 2,6 C 86 % 1027,9 hPa 0,0 l/m 1,6 km/h (1 Bft) NO 45 0 min 0,000 mm 0 W/m 0,5 C 2,6 C 9,7 km/h (2 Bft) 100 %
13.03.2016 03:30 2,6 C 2,6 C 2,6 C 86 % 1028,1 hPa 0,0 l/m 3,2 km/h (1 Bft) NO 45 0 min 0,000 mm 0 W/m 0,5 C 2,6 C 14,5 km/h (3 Bft) 100 %
13.03.2016 03:40 2,6 C 2,6 C 2,6 C 86 % 1028,1 hPa 0,0 l/m 3,2 km/h (1 Bft) NO 45 0 min 0,000 mm 0 W/m 0,5 C 2,6 C 16,1 km/h (3 Bft) 100 %
13.03.2016 03:50 2,6 C 2,6 C 2,7 C 86 % 1028,2 hPa 0,0 l/m 1,6 km/h (1 Bft) NO 45 0 min 0,000 mm 0 W/m 0,5 C 2,6 C 8,0 km/h (2 Bft) 100 %
13.03.2016 04:00 2,6 C 2,6 C 2,6 C 85 % 1028,2 hPa 0,0 l/m 1,6 km/h (1 Bft) NO 45 0 min 0,000 mm 0 W/m 0,3 C 2,6 C 8,0 km/h (2 Bft) 100 %
13.03.2016 04:10 2,6 C 2,6 C 2,6 C 85 % 1028,2 hPa 0,0 l/m 3,2 km/h (1 Bft) NO 45 0 min 0,000 mm 0 W/m 0,3 C 2,6 C 14,5 km/h (3 Bft) 100 %
13.03.2016 04:20 2,6 C 2,6 C 2,6 C 85 % 1028,1 hPa 0,0 l/m 3,2 km/h (1 Bft) NO 45 0 min 0,000 mm 0 W/m 0,3 C 2,6 C 17,7 km/h (3 Bft) 100 %
13.03.2016 04:30 2,5 C 2,5 C 2,6 C 85 % 1028,2 hPa 0,0 l/m 6,4 km/h (2 Bft) NO 45 0 min 0,000 mm 0 W/m 0,2 C 2,5 C 20,9 km/h (4 Bft) 100 %
13.03.2016 04:40 2,4 C 2,4 C 2,5 C 85 % 1028,4 hPa 0,0 l/m 6,4 km/h (2 Bft) NO 45 0 min 0,000 mm 0 W/m 0,1 C 2,4 C 22,5 km/h (4 Bft) 100 %
13.03.2016 04:50 2,3 C 2,3 C 2,4 C 85 % 1028,4 hPa 0,0 l/m 6,4 km/h (2 Bft) NO 45 0 min 0,000 mm 0 W/m 0,0 C 2,3 C 20,9 km/h (4 Bft) 100 %
13.03.2016 05:00 2,3 C 2,3 C 2,3 C 85 % 1028,4 hPa 0,0 l/m 9,7 km/h (2 Bft) NO 45 0 min 0,000 mm 0 W/m 0,0 C -0,7 C 17,7 km/h (3 Bft) 100 %
13.03.2016 05:10 2,2 C 2,2 C 2,3 C 86 % 1028,5 hPa 0,0 l/m 6,4 km/h (2 Bft) NO 45 0 min 0,000 mm 0 W/m 0,1 C 2,2 C 16,1 km/h (3 Bft) 100 %
13.03.2016 05:20 2,2 C 2,2 C 2,2 C 86 % 1028,5 hPa 0,0 l/m 4,8 km/h (1 Bft) NO 45 0 min 0,000 mm 0 W/m 0,1 C 2,2 C 14,5 km/h (3 Bft) 100 %
13.03.2016 05:30 2,1 C 2,1 C 2,2 C 85 % 1028,5 hPa 0,0 l/m 8,0 km/h (2 Bft) NO 45 0 min 0,000 mm 0 W/m -0,2 C 0,6 C 19,3 km/h (3 Bft) 100 %
13.03.2016 05:40 2,1 C 2,1 C 2,1 C 85 % 1028,4 hPa 0,0 l/m 4,8 km/h (1 Bft) NO 45 0 min 0,000 mm 0 W/m -0,2 C 2,1 C 14,5 km/h (3 Bft) 100 %
13.03.2016 05:50 2,0 C 2,0 C 2,1 C 86 % 1028,5 hPa 0,0 l/m 4,8 km/h (1 Bft) NO 45 0 min 0,000 mm 0 W/m -0,1 C 2,0 C 16,1 km/h (3 Bft) 100 %
13.03.2016 06:00 1,9 C 1,9 C 2,0 C 86 % 1028,5 hPa 0,0 l/m 3,2 km/h (1 Bft) NO 45 0 min 0,000 mm 0 W/m -0,2 C 1,9 C 11,3 km/h (2 Bft) 100 %
13.03.2016 06:10 1,8 C 1,8 C 1,9 C 86 % 1028,5 hPa 0,0 l/m 3,2 km/h (1 Bft) NO 45 0 min 0,000 mm 0 W/m -0,3 C 1,8 C 11,3 km/h (2 Bft) 100 %
13.03.2016 06:20 1,7 C 1,7 C 1,8 C 86 % 1028,6 hPa 0,0 l/m 3,2 km/h (1 Bft) NO 45 0 min 0,000 mm 0 W/m -0,4 C 1,7 C 9,7 km/h (2 Bft) 100 %
13.03.2016 06:30 1,6 C 1,6 C 1,7 C 85 % 1028,6 hPa 0,0 l/m 3,2 km/h (1 Bft) NO 45 0 min 0,000 mm 0 W/m -0,6 C 1,6 C 9,7 km/h (2 Bft) 100 %
13.03.2016 06:40 1,5 C 1,5 C 1,6 C 86 % 1028,8 hPa 0,0 l/m 1,6 km/h (1 Bft) NO 45 0 min 0,000 mm 0 W/m -0,6 C 1,5 C 8,0 km/h (2 Bft) 100 %
13.03.2016 06:50 1,4 C 1,4 C 1,5 C 86 % 1028,8 hPa 0,0 l/m 1,6 km/h (1 Bft) NO 45 0 min 0,000 mm 9 W/m -0,7 C 1,4 C 8,0 km/h (2 Bft) 100 %
13.03.2016 07:00 1,4 C 1,4 C 1,4 C 86 % 1028,9 hPa 0,0 l/m 0,0 km/h (0 Bft) NO 45 0 min 0,000 mm 11 W/m -0,7 C 1,4 C 6,4 km/h (2 Bft) 90 %
13.03.2016 07:10 1,4 C 1,4 C 1,4 C 87 % 1029,1 hPa 0,0 l/m 0,0 km/h (0 Bft) NO 45 0 min 0,000 mm 12 W/m -0,5 C 1,4 C 4,8 km/h (1 Bft) 100 %
13.03.2016 07:20 1,6 C 1,4 C 1,6 C 87 % 1029,1 hPa 0,0 l/m 1,6 km/h (1 Bft) NO 45 0 min 0,000 mm 21 W/m -0,3 C 1,6 C 8,0 km/h (2 Bft) 100 %
13.03.2016 07:30 1,7 C 1,6 C 1,7 C 87 % 1029,1 hPa 0,0 l/m 1,6 km/h (1 Bft) NO 45 0 min 0,000 mm 35 W/m -0,2 C 1,7 C 8,0 km/h (2 Bft) 100 %
13.03.2016 07:40 1,8 C 1,7 C 1,8 C 86 % 1029,1 hPa 0,0 l/m 4,8 km/h (1 Bft) NO 45 0 min 0,000 mm 44 W/m -0,3 C 1,8 C 11,3 km/h (2 Bft) 100 %
13.03.2016 07:50 1,9 C 1,8 C 1,9 C 86 % 1029,1 hPa 0,0 l/m 3,2 km/h (1 Bft) NO 45 0 min 0,000 mm 39 W/m -0,2 C 1,9 C 9,7 km/h (2 Bft) 100 %
13.03.2016 08:00 2,1 C 1,9 C 2,1 C 87 % 1029,3 hPa 0,0 l/m 3,2 km/h (1 Bft) NO 45 0 min 0,025 mm 46 W/m 0,2 C 2,1 C 11,3 km/h (2 Bft) 100 %
13.03.2016 08:10 2,3 C 2,1 C 2,3 C 86 % 1029,3 hPa 0,0 l/m 3,2 km/h (1 Bft) NO 45 0 min 0,000 mm 88 W/m 0,2 C 2,3 C 16,1 km/h (3 Bft) 100 %
13.03.2016 08:20 2,4 C 2,3 C 2,4 C 86 % 1029,4 hPa 0,0 l/m 3,2 km/h (1 Bft) NO 45 0 min 0,000 mm 90 W/m 0,3 C 2,4 C 11,3 km/h (2 Bft) 100 %
13.03.2016 08:30 2,7 C 2,4 C 2,7 C 86 % 1029,3 hPa 0,0 l/m 0,0 km/h (0 Bft) NO 45 0 min 0,000 mm 104 W/m 0,6 C 2,7 C 6,4 km/h (2 Bft) 91 %
13.03.2016 08:40 2,9 C 2,7 C 2,9 C 85 % 1029,3 hPa 0,0 l/m 3,2 km/h (1 Bft) NO 45 0 min 0,000 mm 123 W/m 0,6 C 2,9 C 14,5 km/h (3 Bft) 100 %
13.03.2016 08:50 3,1 C 2,8 C 3,1 C 85 % 1029,5 hPa 0,0 l/m 4,8 km/h (1 Bft) NO 45 10 min 0,000 mm 167 W/m 0,8 C 3,1 C 11,3 km/h (2 Bft) 100 %
13.03.2016 09:00 3,3 C 3,1 C 3,3 C 84 % 1029,5 hPa 0,0 l/m 4,8 km/h (1 Bft) NO 45 10 min 0,051 mm 169 W/m 0,9 C 3,3 C 14,5 km/h (3 Bft) 100 %
13.03.2016 09:10 3,5 C 3,3 C 3,5 C 84 % 1029,7 hPa 0,0 l/m 3,2 km/h (1 Bft) NO 45 10 min 0,000 mm 364 W/m 1,1 C 3,5 C 16,1 km/h (3 Bft) 100 %
13.03.2016 09:20 4,1 C 3,5 C 4,1 C 83 % 1029,7 hPa 0,0 l/m 1,6 km/h (1 Bft) NO 45 10 min 0,000 mm 461 W/m 1,5 C 4,1 C 9,7 km/h (2 Bft) 100 %
13.03.2016 09:30 4,3 C 4,1 C 4,3 C 82 % 1029,8 hPa 0,0 l/m 3,2 km/h (1 Bft) NO 45 10 min 0,000 mm 218 W/m 1,5 C 4,3 C 17,7 km/h (3 Bft) 100 %
13.03.2016 09:40 4,2 C 4,2 C 4,3 C 81 % 1029,9 hPa 0,0 l/m 8,0 km/h (2 Bft) NO 45 10 min 0,000 mm 257 W/m 1,2 C 2,8 C 24,1 km/h (4 Bft) 100 %
13.03.2016 09:50 4,2 C 4,1 C 4,2 C 82 % 1029,9 hPa 0,0 l/m 6,4 km/h (2 Bft) NO 45 10 min 0,000 mm 174 W/m 1,4 C 4,2 C 17,7 km/h (3 Bft) 100 %
13.03.2016 10:00 4,2 C 4,2 C 4,2 C 82 % 1030,0 hPa 0,0 l/m 6,4 km/h (2 Bft) NO 45 0 min 0,076 mm 141 W/m 1,4 C 4,2 C 17,7 km/h (3 Bft) 100 %
13.03.2016 10:10 4,2 C 4,2 C 4,2 C 82 % 1030,0 hPa 0,0 l/m 6,4 km/h (2 Bft) NO 45 0 min 0,000 mm 148 W/m 1,4 C 4,2 C 16,1 km/h (3 Bft) 100 %
13.03.2016 10:20 4,3 C 4,2 C 4,3 C 83 % 1030,1 hPa 0,0 l/m 4,8 km/h (1 Bft) NO 45 10 min 0,000 mm 155 W/m 1,7 C 4,3 C 17,7 km/h (3 Bft) 100 %
13.03.2016 10:30 4,6 C 4,3 C 4,6 C 82 % 1030,1 hPa 0,0 l/m 4,8 km/h (1 Bft) NO 45 10 min 0,000 mm 279 W/m 1,8 C 4,6 C 11,3 km/h (2 Bft) 100 %
13.03.2016 10:40 4,7 C 4,6 C 4,7 C 81 % 1030,1 hPa 0,0 l/m 3,2 km/h (1 Bft) NO 45 10 min 0,000 mm 172 W/m 1,7 C 4,7 C 17,7 km/h (3 Bft) 100 %
13.03.2016 10:50 4,7 C 4,6 C 4,7 C 81 % 1030,2 hPa 0,0 l/m 3,2 km/h (1 Bft) NO 45 10 min 0,000 mm 192 W/m 1,7 C 4,7 C 11,3 km/h (2 Bft) 100 %
13.03.2016 11:00 4,9 C 4,7 C 4,9 C 81 % 1030,1 hPa 0,0 l/m 4,8 km/h (1 Bft) NO 45 10 min 0,076 mm 186 W/m 1,9 C 4,9 C 11,3 km/h (2 Bft) 99 %
13.03.2016 11:10 4,9 C 4,9 C 4,9 C 80 % 1030,2 hPa 0,0 l/m 3,2 km/h (1 Bft) NO 45 0 min 0,000 mm 141 W/m 1,7 C 4,9 C 17,7 km/h (3 Bft) 100 %
13.03.2016 11:20 5,0 C 4,9 C 5,0 C 80 % 1030,3 hPa 0,0 l/m 4,8 km/h (1 Bft) NO 45 10 min 0,000 mm 271 W/m 1,8 C 5,0 C 22,5 km/h (4 Bft) 100 %
13.03.2016 11:30 5,3 C 5,0 C 5,3 C 80 % 1030,0 hPa 0,0 l/m 3,2 km/h (1 Bft) NO 45 10 min 0,000 mm 397 W/m 2,1 C 5,3 C 11,3 km/h (2 Bft) 100 %
13.03.2016 11:40 5,6 C 5,3 C 5,6 C 79 % 1030,1 hPa 0,0 l/m 3,2 km/h (1 Bft) NO 45 10 min 0,000 mm 294 W/m 2,3 C 5,6 C 16,1 km/h (3 Bft) 100 %
13.03.2016 11:50 5,6 C 5,6 C 5,6 C 78 % 1030,0 hPa 0,0 l/m 4,8 km/h (1 Bft) NO 45 10 min 0,000 mm 229 W/m 2,1 C 5,6 C 17,7 km/h (3 Bft) 100 %
13.03.2016 12:00 5,8 C 5,6 C 5,8 C 78 % 1030,0 hPa 0,0 l/m 6,4 km/h (2 Bft) NO 45 10 min 0,102 mm 299 W/m 2,3 C 5,8 C 20,9 km/h (4 Bft) 100 %
13.03.2016 12:10 6,0 C 5,8 C 6,0 C 78 % 1030,0 hPa 0,0 l/m 6,4 km/h (2 Bft) NO 45 10 min 0,000 mm 330 W/m 2,5 C 6,0 C 17,7 km/h (3 Bft) 100 %
13.03.2016 12:20 6,2 C 6,0 C 6,2 C 77 % 1029,9 hPa 0,0 l/m 6,4 km/h (2 Bft) NO 45 10 min 0,000 mm 371 W/m 2,5 C 6,2 C 25,7 km/h (4 Bft) 100 %
13.03.2016 12:30 6,5 C 6,2 C 6,5 C 78 % 1029,9 hPa 0,0 l/m 6,4 km/h (2 Bft) NO 45 10 min 0,000 mm 390 W/m 2,9 C 6,5 C 17,7 km/h (3 Bft) 100 %
13.03.2016 12:40 6,4 C 6,4 C 6,6 C 78 % 1029,9 hPa 0,0 l/m 6,4 km/h (2 Bft) NO 45 10 min 0,000 mm 353 W/m 2,8 C 6,4 C 17,7 km/h (3 Bft) 100 %
13.03.2016 12:50 6,3 C 6,3 C 6,4 C 78 % 1029,8 hPa 0,0 l/m 6,4 km/h (2 Bft) NO 45 10 min 0,000 mm 362 W/m 2,8 C 6,3 C 16,1 km/h (3 Bft) 100 %
13.03.2016 13:00 6,3 C 6,3 C 6,4 C 78 % 1029,8 hPa 0,0 l/m 6,4 km/h (2 Bft) NO 45 10 min 0,152 mm 292 W/m 2,8 C 6,3 C 16,1 km/h (3 Bft) 100 %
13.03.2016 13:10 6,3 C 6,2 C 6,3 C 77 % 1029,7 hPa 0,0 l/m 6,4 km/h (2 Bft) NO 45 10 min 0,000 mm 380 W/m 2,6 C 6,3 C 19,3 km/h (3 Bft) 100 %
13.03.2016 13:20 6,6 C 6,3 C 6,6 C 77 % 1029,7 hPa 0,0 l/m 8,0 km/h (2 Bft) NO 45 10 min 0,000 mm 443 W/m 2,9 C 5,3 C 19,3 km/h (3 Bft) 100 %
13.03.2016 13:30 6,9 C 6,6 C 6,9 C 76 % 1029,6 hPa 0,0 l/m 4,8 km/h (1 Bft) NO 45 10 min 0,000 mm 527 W/m 3,0 C 6,9 C 16,1 km/h (3 Bft) 100 %
13.03.2016 13:40 6,8 C 6,8 C 6,9 C 77 % 1029,5 hPa 0,0 l/m 8,0 km/h (2 Bft) NO 45 10 min 0,000 mm 352 W/m 3,1 C 5,5 C 17,7 km/h (3 Bft) 100 %
13.03.2016 13:50 6,6 C 6,6 C 6,8 C 77 % 1029,4 hPa 0,0 l/m 6,4 km/h (2 Bft) NO 45 10 min 0,000 mm 292 W/m 2,9 C 6,6 C 17,7 km/h (3 Bft) 100 %
13.03.2016 14:10 7,1 C 6,6 C 7,1 C 75 % 1029,2 hPa 0,0 l/m 4,4 km/h (1 Bft) O-NO 60 20 min 0,153 mm 353 W/m 3,0 C 7,1 C 16,1 km/h (3 Bft) 97 %
13.03.2016 14:20 7,4 C 7,1 C 7,4 C 74 % 1029,2 hPa 0,0 l/m 6,4 km/h (2 Bft) N-NO 25 10 min 0,000 mm 313 W/m 3,1 C 7,4 C 19,3 km/h (3 Bft) 97 %
13.03.2016 14:30 7,3 C 7,1 C 7,4 C 74 % 1029,0 hPa 0,0 l/m 7,0 km/h (2 Bft) N-NO 32 10 min 0,000 mm 234 W/m 3,0 C 6,8 C 19,3 km/h (3 Bft) 98 %
13.03.2016 14:40 7,1 C 7,1 C 7,4 C 74 % 1029,0 hPa 0,0 l/m 8,6 km/h (2 Bft) NO 37 10 min 0,000 mm 190 W/m 2,8 C 5,4 C 19,3 km/h (3 Bft) 97 %
13.03.2016 14:50 7,1 C 7,1 C 7,1 C 76 % 1028,9 hPa 0,0 l/m 4,4 km/h (1 Bft) NO 47 10 min 0,000 mm 204 W/m 3,2 C 7,1 C 19,3 km/h (3 Bft) 98 %
13.03.2016 15:00 7,1 C 7,1 C 7,2 C 75 % 1028,8 hPa 0,0 l/m 5,0 km/h (1 Bft) NO 44 10 min 0,127 mm 202 W/m 3,0 C 7,1 C 17,7 km/h (3 Bft) 97 %
13.03.2016 15:10 7,1 C 7,1 C 7,1 C 75 % 1028,8 hPa 0,0 l/m 7,5 km/h (2 Bft) NO 42 10 min 0,000 mm 186 W/m 3,0 C 6,2 C 20,9 km/h (4 Bft) 97 %
13.03.2016 15:20 7,1 C 7,1 C 7,1 C 75 % 1028,8 hPa 0,0 l/m 8,2 km/h (2 Bft) NO 40 0 min 0,000 mm 121 W/m 3,0 C 5,7 C 16,1 km/h (3 Bft) 97 %
13.03.2016 15:30 7,0 C 7,0 C 7,1 C 76 % 1028,8 hPa 0,0 l/m 5,7 km/h (1 Bft) N-NO 26 0 min 0,000 mm 113 W/m 3,1 C 7,0 C 16,1 km/h (3 Bft) 98 %
13.03.2016 15:40 7,2 C 7,0 C 7,2 C 75 % 1028,7 hPa 0,0 l/m 9,9 km/h (2 Bft) NO 41 0 min 0,000 mm 146 W/m 3,1 C 4,6 C 19,3 km/h (3 Bft) 97 %
13.03.2016 15:50 7,3 C 7,2 C 7,3 C 74 % 1028,6 hPa 0,0 l/m 8,3 km/h (2 Bft) NO 36 0 min 0,000 mm 95 W/m 3,0 C 5,8 C 16,1 km/h (3 Bft) 98 %
13.03.2016 16:00 7,3 C 7,2 C 7,3 C 75 % 1028,5 hPa 0,0 l/m 7,5 km/h (2 Bft) NO 44 0 min 0,076 mm 56 W/m 3,2 C 6,4 C 16,1 km/h (3 Bft) 97 %
13.03.2016 16:10 7,5 C 7,3 C 7,5 C 73 % 1028,5 hPa 0,0 l/m 7,6 km/h (2 Bft) NO 45 0 min 0,000 mm 62 W/m 3,0 C 6,5 C 20,9 km/h (4 Bft) 97 %
13.03.2016 16:20 7,7 C 7,5 C 7,7 C 73 % 1028,6 hPa 0,0 l/m 6,7 km/h (2 Bft) NO 43 0 min 0,000 mm 62 W/m 3,2 C 7,5 C 16,1 km/h (3 Bft) 97 %
13.03.2016 16:30 7,7 C 7,7 C 7,7 C 73 % 1028,6 hPa 0,0 l/m 4,6 km/h (1 Bft) NO 36 0 min 0,000 mm 72 W/m 3,2 C 7,7 C 11,3 km/h (2 Bft) 97 %
13.03.2016 16:40 7,6 C 7,6 C 7,7 C 73 % 1028,6 hPa 0,0 l/m 6,9 km/h (2 Bft) NO 38 0 min 0,000 mm 58 W/m 3,1 C 7,2 C 16,1 km/h (3 Bft) 97 %
13.03.2016 16:50 7,5 C 7,5 C 7,6 C 72 % 1028,6 hPa 0,0 l/m 5,3 km/h (1 Bft) NO 44 0 min 0,000 mm 46 W/m 2,8 C 7,5 C 19,3 km/h (3 Bft) 98 %
13.03.2016 17:00 7,5 C 7,5 C 7,5 C 72 % 1028,4 hPa 0,0 l/m 4,6 km/h (1 Bft) NO 39 0 min 0,051 mm 42 W/m 2,8 C 7,5 C 16,1 km/h (3 Bft) 97 %
13.03.2016 17:10 7,5 C 7,5 C 7,5 C 72 % 1028,5 hPa 0,0 l/m 4,8 km/h (1 Bft) NO 36 0 min 0,000 mm 39 W/m 2,8 C 7,5 C 14,5 km/h (3 Bft) 98 %
13.03.2016 17:20 7,3 C 7,3 C 7,5 C 72 % 1028,4 hPa 0,0 l/m 6,8 km/h (2 Bft) N-NW 331 0 min 0,000 mm 35 W/m 2,6 C 7,0 C 19,3 km/h (3 Bft) 97 %
13.03.2016 17:30 7,2 C 7,2 C 7,3 C 73 % 1028,4 hPa 0,0 l/m 6,0 km/h (2 Bft) N-NO 27 0 min 0,000 mm 30 W/m 2,7 C 7,2 C 16,1 km/h (3 Bft) 98 %
13.03.2016 17:40 7,1 C 7,1 C 7,2 C 74 % 1028,5 hPa 0,0 l/m 4,5 km/h (1 Bft) N-NO 30 0 min 0,000 mm 26 W/m 2,8 C 7,1 C 14,5 km/h (3 Bft) 97 %
13.03.2016 17:50 6,9 C 6,9 C 7,1 C 74 % 1028,5 hPa 0,0 l/m 3,7 km/h (1 Bft) NO 36 0 min 0,000 mm 21 W/m 2,6 C 6,9 C 11,3 km/h (2 Bft) 97 %
13.03.2016 18:00 6,7 C 6,7 C 6,9 C 74 % 1028,5 hPa 0,0 l/m 1,1 km/h (1 Bft) N-NO 33 0 min 0,025 mm 16 W/m 2,4 C 6,7 C 9,7 km/h (2 Bft) 98 %
13.03.2016 18:10 6,6 C 6,6 C 6,7 C 75 % 1028,6 hPa 0,0 l/m 0,5 km/h (0 Bft) N 10 0 min 0,000 mm 11 W/m 2,5 C 6,6 C 6,4 km/h (2 Bft) 89 %
13.03.2016 18:20 6,3 C 6,3 C 6,6 C 75 % 1028,7 hPa 0,0 l/m 1,6 km/h (1 Bft) NO 36 0 min 0,000 mm 5 W/m 2,2 C 6,3 C 8,0 km/h (2 Bft) 97 %
13.03.2016 18:30 6,1 C 6,1 C 6,3 C 75 % 1028,8 hPa 0,0 l/m 2,7 km/h (1 Bft) N-NO 26 0 min 0,000 mm 0 W/m 2,0 C 6,1 C 9,7 km/h (2 Bft) 97 %
13.03.2016 18:40 5,9 C 5,9 C 6,1 C 76 % 1028,8 hPa 0,0 l/m 2,9 km/h (1 Bft) NO 34 0 min 0,000 mm 0 W/m 2,0 C 5,9 C 16,1 km/h (3 Bft) 98 %
13.03.2016 18:50 5,8 C 5,7 C 5,9 C 76 % 1028,9 hPa 0,0 l/m 2,7 km/h (1 Bft) NO 48 0 min 0,000 mm 0 W/m 1,9 C 5,8 C 9,7 km/h (2 Bft) 97 %
13.03.2016 19:00 5,6 C 5,6 C 5,8 C 76 % 1028,9 hPa 0,0 l/m 1,6 km/h (1 Bft) NO 44 0 min 0,000 mm 0 W/m 1,7 C 5,6 C 9,7 km/h (2 Bft) 97 %
13.03.2016 19:10 5,4 C 5,4 C 5,6 C 77 % 1029,0 hPa 0,0 l/m 1,9 km/h (1 Bft) NO 34 0 min 0,000 mm 0 W/m 1,7 C 5,4 C 9,7 km/h (2 Bft) 98 %
13.03.2016 19:20 5,2 C 5,2 C 5,4 C 77 % 1029,1 hPa 0,0 l/m 2,9 km/h (1 Bft) NO 38 0 min 0,000 mm 0 W/m 1,5 C 5,2 C 14,5 km/h (3 Bft) 97 %
13.03.2016 19:30 5,0 C 5,0 C 5,2 C 77 % 1029,4 hPa 0,0 l/m 3,7 km/h (1 Bft) NO 37 0 min 0,000 mm 0 W/m 1,3 C 5,0 C 14,5 km/h (3 Bft) 98 %
13.03.2016 19:40 4,8 C 4,8 C 5,0 C 77 % 1029,5 hPa 0,0 l/m 7,3 km/h (2 Bft) N-NO 32 0 min 0,000 mm 0 W/m 1,1 C 4,0 C 17,7 km/h (3 Bft) 97 %
13.03.2016 19:50 4,5 C 4,5 C 4,8 C 77 % 1029,6 hPa 0,0 l/m 7,8 km/h (2 Bft) NO 38 0 min 0,000 mm 0 W/m 0,8 C 3,2 C 17,7 km/h (3 Bft) 97 %
13.03.2016 20:00 4,2 C 4,2 C 4,5 C 78 % 1029,7 hPa 0,0 l/m 9,8 km/h (2 Bft) N-NO 32 0 min 0,026 mm 0 W/m 0,7 C 1,3 C 19,3 km/h (3 Bft) 97 %
13.03.2016 20:10 3,8 C 3,8 C 4,2 C 78 % 1029,8 hPa 0,0 l/m 8,7 km/h (2 Bft) NO 34 0 min 0,000 mm 0 W/m 0,3 C 1,8 C 17,7 km/h (3 Bft) 97 %
13.03.2016 20:20 3,4 C 3,4 C 3,8 C 79 % 1029,9 hPa 0,0 l/m 10,6 km/h (2 Bft) NO 41 0 min 0,000 mm 0 W/m 0,1 C -0,1 C 17,7 km/h (3 Bft) 97 %
13.03.2016 20:30 3,1 C 3,1 C 3,4 C 80 % 1030,1 hPa 0,0 l/m 11,0 km/h (2 Bft) N-NO 30 0 min 0,000 mm 0 W/m -0,0 C -0,8 C 17,7 km/h (3 Bft) 97 %
13.03.2016 20:40 2,8 C 2,8 C 3,1 C 81 % 1030,1 hPa 0,0 l/m 8,1 km/h (2 Bft) NO 42 0 min 0,000 mm 0 W/m -0,1 C 1,2 C 19,3 km/h (3 Bft) 98 %
13.03.2016 20:50 2,6 C 2,6 C 2,8 C 82 % 1030,1 hPa 0,0 l/m 7,4 km/h (2 Bft) NO 40 0 min 0,000 mm 0 W/m -0,2 C 1,6 C 16,1 km/h (3 Bft) 97 %
13.03.2016 21:00 2,3 C 2,3 C 2,6 C 83 % 1030,1 hPa 0,0 l/m 9,3 km/h (2 Bft) N-NO 32 0 min 0,025 mm 0 W/m -0,3 C -0,4 C 17,7 km/h (3 Bft) 98 %
13.03.2016 21:10 2,2 C 2,2 C 2,3 C 83 % 1030,1 hPa 0,0 l/m 9,7 km/h (2 Bft) NO 45 0 min 0,000 mm 0 W/m -0,4 C -0,8 C 17,7 km/h (3 Bft) 100 %
13.03.2016 21:20 2,0 C 2,0 C 2,2 C 84 % 1030,2 hPa 0,0 l/m 8,0 km/h (2 Bft) NO 45 0 min 0,000 mm 0 W/m -0,4 C 0,5 C 17,7 km/h (3 Bft) 100 %
13.03.2016 21:30 1,8 C 1,8 C 2,0 C 84 % 1030,2 hPa 0,0 l/m 8,0 km/h (2 Bft) NO 45 0 min 0,000 mm 0 W/m -0,6 C 0,2 C 16,1 km/h (3 Bft) 100 %
13.03.2016 21:40 1,7 C 1,7 C 1,8 C 85 % 1030,3 hPa 0,0 l/m 6,4 km/h (2 Bft) NO 45 0 min 0,000 mm 0 W/m -0,5 C 1,7 C 14,5 km/h (3 Bft) 100 %
13.03.2016 21:50 1,6 C 1,6 C 1,7 C 85 % 1030,4 hPa 0,0 l/m 6,4 km/h (2 Bft) NO 45 0 min 0,000 mm 0 W/m -0,6 C 1,6 C 19,3 km/h (3 Bft) 100 %
13.03.2016 22:00 1,6 C 1,6 C 1,6 C 85 % 1030,6 hPa 0,0 l/m 6,4 km/h (2 Bft) NO 45 0 min 0,025 mm 0 W/m -0,6 C 1,6 C 17,7 km/h (3 Bft) 100 %
13.03.2016 22:10 1,4 C 1,4 C 1,6 C 85 % 1030,6 hPa 0,0 l/m 8,0 km/h (2 Bft) NO 45 0 min 0,000 mm 0 W/m -0,8 C -0,2 C 17,7 km/h (3 Bft) 100 %
13.03.2016 22:20 1,3 C 1,3 C 1,4 C 86 % 1030,6 hPa 0,0 l/m 8,0 km/h (2 Bft) NO 45 0 min 0,000 mm 0 W/m -0,8 C -0,3 C 17,7 km/h (3 Bft) 100 %
13.03.2016 22:30 1,1 C 1,1 C 1,3 C 86 % 1030,7 hPa 0,0 l/m 6,4 km/h (2 Bft) NO 45 0 min 0,000 mm 0 W/m -1,0 C 1,1 C 14,5 km/h (3 Bft) 100 %
13.03.2016 22:40 1,0 C 1,0 C 1,1 C 86 % 1030,6 hPa 0,0 l/m 6,4 km/h (2 Bft) NO 45 0 min 0,000 mm 0 W/m -1,1 C 1,0 C 16,1 km/h (3 Bft) 100 %
13.03.2016 22:50 0,8 C 0,8 C 0,9 C 87 % 1030,7 hPa 0,0 l/m 4,8 km/h (1 Bft) NO 45 0 min 0,000 mm 0 W/m -1,1 C 0,8 C 12,9 km/h (3 Bft) 100 %
13.03.2016 23:00 0,7 C 0,7 C 0,8 C 87 % 1030,6 hPa 0,0 l/m 3,2 km/h (1 Bft) NO 45 0 min 0,000 mm 0 W/m -1,2 C 0,7 C 9,7 km/h (2 Bft) 100 %
13.03.2016 23:10 0,5 C 0,5 C 0,7 C 87 % 1030,6 hPa 0,0 l/m 1,6 km/h (1 Bft) NO 45 0 min 0,000 mm 0 W/m -1,4 C 0,5 C 11,3 km/h (2 Bft) 100 %
13.03.2016 23:20 0,4 C 0,4 C 0,5 C 88 % 1030,6 hPa 0,0 l/m 1,6 km/h (1 Bft) NO 45 0 min 0,000 mm 0 W/m -1,3 C 0,4 C 9,7 km/h (2 Bft) 100 %
13.03.2016 23:30 0,3 C 0,3 C 0,4 C 88 % 1030,7 hPa 0,0 l/m 1,6 km/h (1 Bft) NO 45 0 min 0,000 mm 0 W/m -1,4 C 0,3 C 9,7 km/h (2 Bft) 100 %
13.03.2016 23:40 0,3 C 0,3 C 0,3 C 88 % 1030,6 hPa 0,0 l/m 1,6 km/h (1 Bft) NO 45 0 min 0,000 mm 0 W/m -1,4 C 0,3 C 8,0 km/h (2 Bft) 100 %
13.03.2016 23:50 0,3 C 0,2 C 0,3 C 88 % 1030,6 hPa 0,0 l/m 1,6 km/h (1 Bft) NO 45 0 min 0,000 mm 0 W/m -1,4 C 0,3 C 8,0 km/h (2 Bft) 100 %
_ Min-Zeit 23:50 23:50 23:40 16:50 00:40 - 00:00 - - - - - 23:30 21:10 00:00 18:10
Minimum _ 0,2 C 0,2 C 0,3 C 72 % 1027,8 hPa - 0,0 km/h (0 Bft) - - - - - -1,4 C -0,8 C 4,8 km/h (1 Bft) 89 %
_ Max-Zeit 16:20 16:30 16:20 23:20 22:30 00:00 20:30 - - 14:10 14:10 13:30 16:20 16:30 12:20 00:00
Maximum _ 7,7 C 7,7 C 7,7 C 88 % 1030,7 hPa 0,0 l/m 11,0 km/h
N-NO (2 Bft)
- - 20 min 0,153 mm 527 W/m 3,2 C 7,7 C 25,7 km/h
O-NO (4 Bft)
100 %
Durchschnitt _ 3,9 C 3,9 C 4,0 C 82 % 1029,1 hPa #0,0 l/m 4,4 km/h (1 Bft) NO - #6:00 h #0,990 mm 176 W/m 1,0 C 3,6 C 13,8 km/h (3 Bft) 99 %
PRIVATE WETTERSTATION BILLIGHEIM-ALLFELD - www.neckar-odenwald-wetter.de - Holger Sonntag